Wisby Argan — LAFB7 — position and weather

sailwx.info

Track history (hours):
 
Tides and Currents Weather Stations Pressure Air Temp Water Temp Dewpoint Dewpoint Depression Visibility Wind Speed Wind Dir Waves Ship Positions

Wisby Argan

Last reported at 2018-Jan-18 02:53 UTC. Time now 2018-Jan-20 09:30 UTC.
Position N 35°54' W 005°51'.

Length 100 m; draft 6 m.

Type: Ship (hazmat cat A). MMSI: 259746000.

Date/timePositionNaut miles runAvg speedWind from/ knotsBaromVisibWave heightAir tempDewpointWater temp
2018-Jan-18 02:53N 35°54' W 005°51'5 9.6
2018-Jan-18 02:22N 35°57' W 005°45'410.8
2018-Jan-18 02:00N 35°57' W 005°40'510.7
2018-Jan-18 01:30N 35°57' W 005°34'4 7.7
2018-Jan-18 01:01N 35°56' W 005°30'2 2.0
2018-Jan-18 00:00N 35°54' W 005°30'0 0.0
2018-Jan-17 23:58N 35°54' W 005°30'  
2018-Jan-11 17:58N 35°30' W 006°17'510.0
2018-Jan-11 17:30N 35°34' W 006°14'1010.6
2018-Jan-11 16:34N 35°42' W 006°07'3 9.8
2018-Jan-11 16:17N 35°45' W 006°05'410.2
2018-Jan-11 15:53N 35°47' W 006°01'4 9.4
2018-Jan-11 15:26N 35°50' W 005°57'4 9.4
2018-Jan-11 15:00N 35°53' W 005°54'5 9.0
2018-Jan-11 14:29N 35°56' W 005°49'4 7.9
2018-Jan-11 13:57N 35°57' W 005°44'3 7.5
2018-Jan-11 13:30N 35°57' W 005°40'4 7.4
2018-Jan-11 13:01N 35°58' W 005°36'4 7.1
2018-Jan-11 12:30N 35°59' W 005°32'4 7.3
2018-Jan-11 12:01N 35°60' W 005°27'4 7.4
2018-Jan-11 11:30N 36°02' W 005°23'3 5.5
2018-Jan-11 11:01N 36°04' W 005°21'1 2.4
2018-Jan-11 10:30N 36°03' W 005°22'5 9.8
2018-Jan-11 10:01N 35°58' W 005°24'611.1
2018-Jan-11 09:31N 35°55' W 005°30'1 2.1
2018-Jan-11 08:58N 35°54' W 005°30'0 0.0
2018-Jan-11 08:20N 35°54' W 005°30'0 0.0
2018-Jan-11 07:16N 35°54' W 005°30'0 0.0
2018-Jan-11 06:52N 35°54' W 005°30'0 0.0
2018-Jan-11 06:19N 35°54' W 005°30'0 0.0
2018-Jan-11 05:52N 35°54' W 005°30'0 0.0
2018-Jan-11 04:19N 35°54' W 005°30'0 0.0
2018-Jan-11 03:40N 35°54' W 005°30'0 0.0
2018-Jan-11 03:22N 35°54' W 005°30'0 0.0
2018-Jan-11 02:55N 35°54' W 005°30'0 0.0
2018-Jan-11 02:08N 35°54' W 005°30'0 0.0
2018-Jan-11 01:55N 35°54' W 005°30'0 0.0
2018-Jan-11 01:25N 35°54' W 005°30'0 0.0
2018-Jan-11 00:52N 35°54' W 005°30'0 0.0
2018-Jan-11 00:23N 35°54' W 005°30'0 0.0
2018-Jan-10 23:40N 35°54' W 005°30'0 0.0
2018-Jan-10 23:25N 35°54' W 005°30'0 0.0
2018-Jan-10 22:58N 35°54' W 005°30'0 0.0
2018-Jan-10 22:04N 35°54' W 005°30'0 0.0
2018-Jan-10 20:22N 35°54' W 005°30'0 0.0
2018-Jan-10 18:40N 35°54' W 005°30'0 0.0
2018-Jan-10 15:56N 35°54' W 005°30'0 0.0
2018-Jan-10 15:25N 35°54' W 005°30'0 0.1
2018-Jan-10 15:00N 35°54' W 005°30'1 2.7
2018-Jan-10 14:30N 35°55' W 005°31'1 1.9
2018-Jan-10 14:00N 35°55' W 005°32'1 1.5
2018-Jan-10 13:30N 35°54' W 005°32'1 2.6
2018-Jan-10 12:59N 35°54' W 005°34'0 0.0
2018-Jan-10 12:20N 35°53' W 005°34'0 0.0
2018-Jan-10 11:56N 35°53' W 005°34'0 0.0
2018-Jan-10 11:29N 35°53' W 005°34'0 0.0
2018-Jan-10 08:56N 35°53' W 005°34'0 0.6
2018-Jan-10 08:29N 35°54' W 005°34'4 6.6
2018-Jan-10 07:57N 35°55' W 005°38'510.9
2018-Jan-10 07:30N 35°54' W 005°44'510.8
2018-Jan-10 07:00N 35°53' W 005°50'  
Track history (hours):
 
Tides and Currents Weather Stations Pressure Air Temp Water Temp Dewpoint Dewpoint Depression Visibility Wind Speed Wind Dir Waves Ship Positions

Wisby Argan

Last reported at 2018-Jan-18 02:53 UTC. Time now 2018-Jan-20 09:30 UTC.
Position N 35°54' W 005°51'.

Length 100 m; draft 6 m.

Type: Ship (hazmat cat A). MMSI: 259746000.

Date/timePositionNaut miles runAvg speedWind from/ knotsBaromVisibWave heightAir tempDewpointWater temp
2018-Jan-18 02:53N 35°54' W 005°51'5 9.6
2018-Jan-18 02:22N 35°57' W 005°45'410.8
2018-Jan-18 02:00N 35°57' W 005°40'510.7
2018-Jan-18 01:30N 35°57' W 005°34'4 7.7
2018-Jan-18 01:01N 35°56' W 005°30'2 2.0
2018-Jan-18 00:00N 35°54' W 005°30'0 0.0
2018-Jan-17 23:58N 35°54' W 005°30'  
2018-Jan-11 17:58N 35°30' W 006°17'510.0
2018-Jan-11 17:30N 35°34' W 006°14'1010.6
2018-Jan-11 16:34N 35°42' W 006°07'3 9.8
2018-Jan-11 16:17N 35°45' W 006°05'410.2
2018-Jan-11 15:53N 35°47' W 006°01'4 9.4
2018-Jan-11 15:26N 35°50' W 005°57'4 9.4
2018-Jan-11 15:00N 35°53' W 005°54'5 9.0
2018-Jan-11 14:29N 35°56' W 005°49'4 7.9
2018-Jan-11 13:57N 35°57' W 005°44'3 7.5
2018-Jan-11 13:30N 35°57' W 005°40'4 7.4
2018-Jan-11 13:01N 35°58' W 005°36'4 7.1
2018-Jan-11 12:30N 35°59' W 005°32'4 7.3
2018-Jan-11 12:01N 35°60' W 005°27'4 7.4
2018-Jan-11 11:30N 36°02' W 005°23'3 5.5
2018-Jan-11 11:01N 36°04' W 005°21'1 2.4
2018-Jan-11 10:30N 36°03' W 005°22'5 9.8
2018-Jan-11 10:01N 35°58' W 005°24'611.1
2018-Jan-11 09:31N 35°55' W 005°30'1 2.1
2018-Jan-11 08:58N 35°54' W 005°30'0 0.0
2018-Jan-11 08:20N 35°54' W 005°30'0 0.0
2018-Jan-11 07:16N 35°54' W 005°30'0 0.0
2018-Jan-11 06:52N 35°54' W 005°30'0 0.0
2018-Jan-11 06:19N 35°54' W 005°30'0 0.0
2018-Jan-11 05:52N 35°54' W 005°30'0 0.0
2018-Jan-11 04:19N 35°54' W 005°30'0 0.0
2018-Jan-11 03:40N 35°54' W 005°30'0 0.0
2018-Jan-11 03:22N 35°54' W 005°30'0 0.0
2018-Jan-11 02:55N 35°54' W 005°30'0 0.0
2018-Jan-11 02:08N 35°54' W 005°30'0 0.0
2018-Jan-11 01:55N 35°54' W 005°30'0 0.0
2018-Jan-11 01:25N 35°54' W 005°30'0 0.0
2018-Jan-11 00:52N 35°54' W 005°30'0 0.0
2018-Jan-11 00:23N 35°54' W 005°30'0 0.0
2018-Jan-10 23:40N 35°54' W 005°30'0 0.0
2018-Jan-10 23:25N 35°54' W 005°30'0 0.0
2018-Jan-10 22:58N 35°54' W 005°30'0 0.0
2018-Jan-10 22:04N 35°54' W 005°30'0 0.0
2018-Jan-10 20:22N 35°54' W 005°30'0 0.0
2018-Jan-10 18:40N 35°54' W 005°30'0 0.0
2018-Jan-10 15:56N 35°54' W 005°30'0 0.0
2018-Jan-10 15:25N 35°54' W 005°30'0 0.1
2018-Jan-10 15:00N 35°54' W 005°30'1 2.7
2018-Jan-10 14:30N 35°55' W 005°31'1 1.9
2018-Jan-10 14:00N 35°55' W 005°32'1 1.5
2018-Jan-10 13:30N 35°54' W 005°32'1 2.6
2018-Jan-10 12:59N 35°54' W 005°34'0 0.0
2018-Jan-10 12:20N 35°53' W 005°34'0 0.0
2018-Jan-10 11:56N 35°53' W 005°34'0 0.0
2018-Jan-10 11:29N 35°53' W 005°34'0 0.0
2018-Jan-10 08:56N 35°53' W 005°34'0 0.6
2018-Jan-10 08:29N 35°54' W 005°34'4 6.6
2018-Jan-10 07:57N 35°55' W 005°38'510.9
2018-Jan-10 07:30N 35°54' W 005°44'510.8
2018-Jan-10 07:00N 35°53' W 005°50'  

Dump ship's entire track history